sensor_id;sensor_type;location;lat;lon;timestamp;temperature;humidity
52471;DHT22;38382;53.160;7.026;2023-05-17T00:08:47;8.60;99.90
52471;DHT22;38382;53.160;7.026;2023-05-17T00:14:52;8.60;99.90
52471;DHT22;38382;53.160;7.026;2023-05-17T00:17:17;8.40;99.90
52471;DHT22;38382;53.160;7.026;2023-05-17T00:19:43;8.30;99.90
52471;DHT22;38382;53.160;7.026;2023-05-17T00:22:09;8.30;99.90
52471;DHT22;38382;53.160;7.026;2023-05-17T00:24:41;8.30;99.90
52471;DHT22;38382;53.160;7.026;2023-05-17T00:27:06;7.70;99.90
52471;DHT22;38382;53.160;7.026;2023-05-17T00:30:12;8.20;99.90
52471;DHT22;38382;53.160;7.026;2023-05-17T00:33:02;8.10;99.90
52471;DHT22;38382;53.160;7.026;2023-05-17T00:39:32;8.40;99.90
52471;DHT22;38382;53.160;7.026;2023-05-17T00:42:10;8.40;99.90
52471;DHT22;38382;53.160;7.026;2023-05-17T00:45:06;7.90;99.90
52471;DHT22;38382;53.160;7.026;2023-05-17T00:47:54;10.00;99.90
52471;DHT22;38382;53.160;7.026;2023-05-17T00:50:23;8.20;99.90
52471;DHT22;38382;53.160;7.026;2023-05-17T00:52:49;8.30;99.90
52471;DHT22;38382;53.160;7.026;2023-05-17T00:55:18;6.90;99.90
52471;DHT22;38382;53.160;7.026;2023-05-17T00:57:47;8.20;99.90
52471;DHT22;38382;53.160;7.026;2023-05-17T01:00:13;8.30;99.90
52471;DHT22;38382;53.160;7.026;2023-05-17T01:02:39;8.10;99.90
52471;DHT22;38382;53.160;7.026;2023-05-17T01:05:12;8.20;99.90
52471;DHT22;38382;53.160;7.026;2023-05-17T01:14:40;8.60;99.90
52471;DHT22;38382;53.160;7.026;2023-05-17T01:31:43;8.00;99.90
52471;DHT22;38382;53.160;7.026;2023-05-17T01:37:40;6.70;99.90
52471;DHT22;38382;53.160;7.026;2023-05-17T01:40:09;7.70;99.90
52471;DHT22;38382;53.160;7.026;2023-05-17T01:42:40;7.60;99.90
52471;DHT22;38382;53.160;7.026;2023-05-17T01:52:52;7.70;99.90
52471;DHT22;38382;53.160;7.026;2023-05-17T01:58:35;7.60;99.90
52471;DHT22;38382;53.160;7.026;2023-05-17T02:05:30;7.60;99.90
52471;DHT22;38382;53.160;7.026;2023-05-17T02:08:02;8.10;99.90
52471;DHT22;38382;53.160;7.026;2023-05-17T02:21:30;7.50;99.90
52471;DHT22;38382;53.160;7.026;2023-05-17T02:23:56;7.50;99.90
52471;DHT22;38382;53.160;7.026;2023-05-17T02:26:22;8.00;99.90
52471;DHT22;38382;53.160;7.026;2023-05-17T02:28:48;7.40;99.90
52471;DHT22;38382;53.160;7.026;2023-05-17T02:31:13;7.40;99.90
52471;DHT22;38382;53.160;7.026;2023-05-17T02:33:39;7.40;99.90
52471;DHT22;38382;53.160;7.026;2023-05-17T02:36:05;7.50;99.90
52471;DHT22;38382;53.160;7.026;2023-05-17T02:38:31;7.50;99.90
52471;DHT22;38382;53.160;7.026;2023-05-17T02:40:57;7.50;99.90
52471;DHT22;38382;53.160;7.026;2023-05-17T02:43:23;7.50;99.90
52471;DHT22;38382;53.160;7.026;2023-05-17T02:45:48;7.50;99.90
52471;DHT22;38382;53.160;7.026;2023-05-17T02:48:14;7.50;99.90
52471;DHT22;38382;53.160;7.026;2023-05-17T02:50:40;7.50;99.90
52471;DHT22;38382;53.160;7.026;2023-05-17T02:53:06;7.50;99.90
52471;DHT22;38382;53.160;7.026;2023-05-17T02:55:31;7.60;99.90
52471;DHT22;38382;53.160;7.026;2023-05-17T02:57:57;7.50;99.90
52471;DHT22;38382;53.160;7.026;2023-05-17T03:00:23;7.40;99.90
52471;DHT22;38382;53.160;7.026;2023-05-17T03:02:49;7.50;99.90
52471;DHT22;38382;53.160;7.026;2023-05-17T03:05:15;7.50;99.90
52471;DHT22;38382;53.160;7.026;2023-05-17T03:07:40;7.50;99.90
52471;DHT22;38382;53.160;7.026;2023-05-17T03:10:06;7.50;99.90
52471;DHT22;38382;53.160;7.026;2023-05-17T03:12:32;7.40;99.90
52471;DHT22;38382;53.160;7.026;2023-05-17T03:14:58;6.30;99.90
52471;DHT22;38382;53.160;7.026;2023-05-17T03:17:24;7.30;99.90
52471;DHT22;38382;53.160;7.026;2023-05-17T03:19:49;7.40;99.90
52471;DHT22;38382;53.160;7.026;2023-05-17T03:22:15;7.50;99.90
52471;DHT22;38382;53.160;7.026;2023-05-17T03:24:41;8.10;99.90
52471;DHT22;38382;53.160;7.026;2023-05-17T03:27:10;7.50;99.90
52471;DHT22;38382;53.160;7.026;2023-05-17T03:29:35;7.50;99.90
52471;DHT22;38382;53.160;7.026;2023-05-17T03:32:01;7.50;99.90
52471;DHT22;38382;53.160;7.026;2023-05-17T03:34:27;7.60;99.90
52471;DHT22;38382;53.160;7.026;2023-05-17T03:36:53;7.60;99.90
52471;DHT22;38382;53.160;7.026;2023-05-17T03:39:19;8.60;99.90
52471;DHT22;38382;53.160;7.026;2023-05-17T03:41:44;7.60;99.90
52471;DHT22;38382;53.160;7.026;2023-05-17T03:44:10;7.50;99.90
52471;DHT22;38382;53.160;7.026;2023-05-17T03:46:36;7.60;99.90
52471;DHT22;38382;53.160;7.026;2023-05-17T03:49:02;7.70;99.90
52471;DHT22;38382;53.160;7.026;2023-05-17T03:51:27;7.60;99.90
52471;DHT22;38382;53.160;7.026;2023-05-17T03:53:59;7.80;99.90
52471;DHT22;38382;53.160;7.026;2023-05-17T03:56:25;7.90;99.90
52471;DHT22;38382;53.160;7.026;2023-05-17T03:58:51;7.80;99.90
52471;DHT22;38382;53.160;7.026;2023-05-17T04:01:17;7.80;99.90
52471;DHT22;38382;53.160;7.026;2023-05-17T04:03:45;7.70;99.90
52471;DHT22;38382;53.160;7.026;2023-05-17T04:06:12;7.90;99.90
52471;DHT22;38382;53.160;7.026;2023-05-17T04:08:39;7.80;99.90
52471;DHT22;38382;53.160;7.026;2023-05-17T04:11:05;7.90;99.90
52471;DHT22;38382;53.160;7.026;2023-05-17T04:13:40;7.90;99.90
52471;DHT22;38382;53.160;7.026;2023-05-17T04:16:08;8.00;99.90
52471;DHT22;38382;53.160;7.026;2023-05-17T04:18:37;8.00;99.90
52471;DHT22;38382;53.160;7.026;2023-05-17T04:21:04;8.10;99.90
52471;DHT22;38382;53.160;7.026;2023-05-17T04:23:48;8.00;99.90
52471;DHT22;38382;53.160;7.026;2023-05-17T04:26:16;8.00;99.90
52471;DHT22;38382;53.160;7.026;2023-05-17T04:28:44;8.00;99.90
52471;DHT22;38382;53.160;7.026;2023-05-17T04:31:13;8.20;99.90
52471;DHT22;38382;53.160;7.026;2023-05-17T04:33:46;8.10;99.90
52471;DHT22;38382;53.160;7.026;2023-05-17T04:36:15;8.20;99.90
52471;DHT22;38382;53.160;7.026;2023-05-17T04:49:58;9.40;99.90
52471;DHT22;38382;53.160;7.026;2023-05-17T04:56:27;8.50;99.90
52471;DHT22;38382;53.160;7.026;2023-05-17T04:58:56;8.50;99.90
52471;DHT22;38382;53.160;7.026;2023-05-17T05:01:22;8.60;99.90
52471;DHT22;38382;53.160;7.026;2023-05-17T05:03:47;8.60;99.90
52471;DHT22;38382;53.160;7.026;2023-05-17T05:06:20;8.70;99.90
52471;DHT22;38382;53.160;7.026;2023-05-17T05:12:10;8.80;99.90
52471;DHT22;38382;53.160;7.026;2023-05-17T05:14:36;8.80;99.90
52471;DHT22;38382;53.160;7.026;2023-05-17T05:17:02;8.70;99.90
52471;DHT22;38382;53.160;7.026;2023-05-17T05:19:47;8.70;99.90
52471;DHT22;38382;53.160;7.026;2023-05-17T05:22:15;8.10;99.90
52471;DHT22;38382;53.160;7.026;2023-05-17T05:24:41;8.80;99.90
52471;DHT22;38382;53.160;7.026;2023-05-17T05:27:10;8.80;99.90
52471;DHT22;38382;53.160;7.026;2023-05-17T05:29:35;8.70;99.90
52471;DHT22;38382;53.160;7.026;2023-05-17T05:32:01;8.90;99.90
52471;DHT22;38382;53.160;7.026;2023-05-17T05:34:29;8.90;99.90
52471;DHT22;38382;53.160;7.026;2023-05-17T05:36:56;8.80;99.90
52471;DHT22;38382;53.160;7.026;2023-05-17T05:39:21;8.90;99.90
52471;DHT22;38382;53.160;7.026;2023-05-17T05:41:47;8.90;99.90
52471;DHT22;38382;53.160;7.026;2023-05-17T05:44:13;9.00;99.90
52471;DHT22;38382;53.160;7.026;2023-05-17T05:46:39;9.00;99.90
52471;DHT22;38382;53.160;7.026;2023-05-17T05:49:04;8.90;99.90
52471;DHT22;38382;53.160;7.026;2023-05-17T05:51:30;9.00;99.90
52471;DHT22;38382;53.160;7.026;2023-05-17T05:53:56;8.90;99.90
52471;DHT22;38382;53.160;7.026;2023-05-17T05:56:24;9.00;99.90
52471;DHT22;38382;53.160;7.026;2023-05-17T05:59:10;8.80;99.90
52471;DHT22;38382;53.160;7.026;2023-05-17T06:01:36;9.00;99.90
52471;DHT22;38382;53.160;7.026;2023-05-17T06:04:02;8.90;99.90
52471;DHT22;38382;53.160;7.026;2023-05-17T06:06:28;8.90;99.90
52471;DHT22;38382;53.160;7.026;2023-05-17T06:08:54;9.00;99.90
52471;DHT22;38382;53.160;7.026;2023-05-17T06:12:11;9.00;99.90
52471;DHT22;38382;53.160;7.026;2023-05-17T06:14:56;9.30;99.90
52471;DHT22;38382;53.160;7.026;2023-05-17T06:17:38;9.10;99.90
52471;DHT22;38382;53.160;7.026;2023-05-17T06:35:32;8.90;99.90
52471;DHT22;38382;53.160;7.026;2023-05-17T06:42:55;9.00;99.90
52471;DHT22;38382;53.160;7.026;2023-05-17T06:53:18;9.70;99.90
52471;DHT22;38382;53.160;7.026;2023-05-17T06:59:19;9.90;99.90
52471;DHT22;38382;53.160;7.026;2023-05-17T07:05:58;9.90;99.90
52471;DHT22;38382;53.160;7.026;2023-05-17T07:08:24;9.90;99.90
52471;DHT22;38382;53.160;7.026;2023-05-17T07:11:13;10.00;99.90
52471;DHT22;38382;53.160;7.026;2023-05-17T07:14:05;10.50;99.90
52471;DHT22;38382;53.160;7.026;2023-05-17T07:16:34;10.50;99.90
52471;DHT22;38382;53.160;7.026;2023-05-17T07:23:03;10.40;99.90
52471;DHT22;38382;53.160;7.026;2023-05-17T07:25:31;11.10;99.90
52471;DHT22;38382;53.160;7.026;2023-05-17T07:32:10;11.40;99.90
52471;DHT22;38382;53.160;7.026;2023-05-17T07:34:43;11.60;99.90
52471;DHT22;38382;53.160;7.026;2023-05-17T07:41:46;10.90;99.90
52471;DHT22;38382;53.160;7.026;2023-05-17T07:44:17;10.90;99.90
52471;DHT22;38382;53.160;7.026;2023-05-17T07:47:20;11.60;99.90
52471;DHT22;38382;53.160;7.026;2023-05-17T07:53:35;11.60;99.90
52471;DHT22;38382;53.160;7.026;2023-05-17T07:56:04;11.00;99.90
52471;DHT22;38382;53.160;7.026;2023-05-17T08:02:30;11.30;99.90
52471;DHT22;38382;53.160;7.026;2023-05-17T08:09:21;10.70;99.90
52471;DHT22;38382;53.160;7.026;2023-05-17T08:11:53;11.80;99.90
52471;DHT22;38382;53.160;7.026;2023-05-17T08:17:59;11.00;99.90
52471;DHT22;38382;53.160;7.026;2023-05-17T08:20:30;11.80;99.90
52471;DHT22;38382;53.160;7.026;2023-05-17T09:33:27;13.20;99.50
52471;DHT22;38382;53.160;7.026;2023-05-17T09:36:22;13.00;99.90
52471;DHT22;38382;53.160;7.026;2023-05-17T09:45:23;12.80;99.90
52471;DHT22;38382;53.160;7.026;2023-05-17T09:48:21;13.10;99.90
52471;DHT22;38382;53.160;7.026;2023-05-17T09:51:18;13.40;99.90
52471;DHT22;38382;53.160;7.026;2023-05-17T09:54:11;13.60;99.90
52471;DHT22;38382;53.160;7.026;2023-05-17T09:56:40;14.30;99.90
52471;DHT22;38382;53.160;7.026;2023-05-17T10:06:05;14.10;98.00
52471;DHT22;38382;53.160;7.026;2023-05-17T10:09:01;14.20;99.20
52471;DHT22;38382;53.160;7.026;2023-05-17T10:18:35;14.90;98.10
52471;DHT22;38382;53.160;7.026;2023-05-17T10:21:16;14.80;97.50
52471;DHT22;38382;53.160;7.026;2023-05-17T10:24:26;14.70;97.30
52471;DHT22;38382;53.160;7.026;2023-05-17T10:30:12;14.80;96.30
52471;DHT22;38382;53.160;7.026;2023-05-17T10:40:20;14.00;98.10
52471;DHT22;38382;53.160;7.026;2023-05-17T10:43:02;14.50;98.10
52471;DHT22;38382;53.160;7.026;2023-05-17T10:57:06;15.00;98.10
52471;DHT22;38382;53.160;7.026;2023-05-17T11:00:02;14.30;99.20
52471;DHT22;38382;53.160;7.026;2023-05-17T11:02:40;14.10;99.30
52471;DHT22;38382;53.160;7.026;2023-05-17T11:25:17;13.90;99.90
52471;DHT22;38382;53.160;7.026;2023-05-17T11:36:01;14.80;97.90
52471;DHT22;38382;53.160;7.026;2023-05-17T11:39:19;14.80;98.00
52471;DHT22;38382;53.160;7.026;2023-05-17T12:15:59;15.20;97.80
52471;DHT22;38382;53.160;7.026;2023-05-17T12:22:26;15.60;94.60
52471;DHT22;38382;53.160;7.026;2023-05-17T12:28:28;15.60;94.20
52471;DHT22;38382;53.160;7.026;2023-05-17T12:32:07;15.00;92.50
52471;DHT22;38382;53.160;7.026;2023-05-17T12:38:07;15.60;94.50
52471;DHT22;38382;53.160;7.026;2023-05-17T12:40:33;15.80;95.30
52471;DHT22;38382;53.160;7.026;2023-05-17T12:50:16;16.30;95.20
52471;DHT22;38382;53.160;7.026;2023-05-17T12:57:22;17.20;90.40
52471;DHT22;38382;53.160;7.026;2023-05-17T13:00:23;18.40;84.90
52471;DHT22;38382;53.160;7.026;2023-05-17T13:03:13;18.20;79.00
52471;DHT22;38382;53.160;7.026;2023-05-17T13:06:28;18.60;85.70
52471;DHT22;38382;53.160;7.026;2023-05-17T13:09:29;18.50;82.40
52471;DHT22;38382;53.160;7.026;2023-05-17T13:12:52;18.20;80.10
52471;DHT22;38382;53.160;7.026;2023-05-17T13:15:34;18.10;86.20
52471;DHT22;38382;53.160;7.026;2023-05-17T13:25:08;17.50;83.20
52471;DHT22;38382;53.160;7.026;2023-05-17T13:27:51;17.20;83.60
52471;DHT22;38382;53.160;7.026;2023-05-17T13:30:20;17.70;90.90
52471;DHT22;38382;53.160;7.026;2023-05-17T13:32:49;17.50;90.40
52471;DHT22;38382;53.160;7.026;2023-05-17T13:35:38;17.30;88.20
52471;DHT22;38382;53.160;7.026;2023-05-17T13:38:20;17.00;88.70
52471;DHT22;38382;53.160;7.026;2023-05-17T13:40:48;16.70;90.00
52471;DHT22;38382;53.160;7.026;2023-05-17T13:43:16;16.60;92.40
52471;DHT22;38382;53.160;7.026;2023-05-17T13:45:50;16.50;91.20
52471;DHT22;38382;53.160;7.026;2023-05-17T13:48:24;16.70;91.90
52471;DHT22;38382;53.160;7.026;2023-05-17T13:50:52;17.00;92.50
52471;DHT22;38382;53.160;7.026;2023-05-17T13:53:37;17.20;91.60
52471;DHT22;38382;53.160;7.026;2023-05-17T13:56:06;17.20;91.30
52471;DHT22;38382;53.160;7.026;2023-05-17T13:58:32;17.20;92.00
52471;DHT22;38382;53.160;7.026;2023-05-17T14:27:57;16.00;90.40
52471;DHT22;38382;53.160;7.026;2023-05-17T14:30:35;16.00;91.30
52471;DHT22;38382;53.160;7.026;2023-05-17T14:33:03;16.20;91.10
52471;DHT22;38382;53.160;7.026;2023-05-17T14:35:29;17.00;93.50
52471;DHT22;38382;53.160;7.026;2023-05-17T14:38:06;17.30;89.00
52471;DHT22;38382;53.160;7.026;2023-05-17T14:44:35;17.70;88.40
52471;DHT22;38382;53.160;7.026;2023-05-17T14:55:41;16.50;88.40
52471;DHT22;38382;53.160;7.026;2023-05-17T15:16:42;16.50;91.30
52471;DHT22;38382;53.160;7.026;2023-05-17T15:22:49;15.90;92.20
52471;DHT22;38382;53.160;7.026;2023-05-17T15:25:29;15.40;92.70
52471;DHT22;38382;53.160;7.026;2023-05-17T15:49:02;15.10;92.60
52471;DHT22;38382;53.160;7.026;2023-05-17T15:51:47;14.60;93.40
52471;DHT22;38382;53.160;7.026;2023-05-17T15:54:45;14.70;93.70
52471;DHT22;38382;53.160;7.026;2023-05-17T16:05:52;15.00;90.70
52471;DHT22;38382;53.160;7.026;2023-05-17T16:08:33;14.90;90.40
52471;DHT22;38382;53.160;7.026;2023-05-17T16:11:36;14.70;91.40
52471;DHT22;38382;53.160;7.026;2023-05-17T16:14:56;14.70;92.50
52471;DHT22;38382;53.160;7.026;2023-05-17T16:17:22;14.60;91.40
52471;DHT22;38382;53.160;7.026;2023-05-17T16:20:27;14.30;90.50
52471;DHT22;38382;53.160;7.026;2023-05-17T16:23:21;14.00;92.30
52471;DHT22;38382;53.160;7.026;2023-05-17T16:25:54;14.00;93.60
52471;DHT22;38382;53.160;7.026;2023-05-17T16:35:01;13.60;94.90
52471;DHT22;38382;53.160;7.026;2023-05-17T16:37:42;13.40;94.80
52471;DHT22;38382;53.160;7.026;2023-05-17T16:40:31;12.60;96.70
52471;DHT22;38382;53.160;7.026;2023-05-17T16:43:03;12.50;96.80
52471;DHT22;38382;53.160;7.026;2023-05-17T16:48:44;13.00;97.00
52471;DHT22;38382;53.160;7.026;2023-05-17T17:02:13;13.00;94.80
52471;DHT22;38382;53.160;7.026;2023-05-17T17:07:33;12.90;96.40
52471;DHT22;38382;53.160;7.026;2023-05-17T17:10:39;13.00;97.50
52471;DHT22;38382;53.160;7.026;2023-05-17T17:13:05;12.90;97.10
52471;DHT22;38382;53.160;7.026;2023-05-17T17:15:31;12.90;97.60
52471;DHT22;38382;53.160;7.026;2023-05-17T17:21:57;12.70;96.80
52471;DHT22;38382;53.160;7.026;2023-05-17T17:28:04;12.50;97.20
52471;DHT22;38382;53.160;7.026;2023-05-17T17:38:17;11.60;97.40
52471;DHT22;38382;53.160;7.026;2023-05-17T17:47:57;12.00;98.70
52471;DHT22;38382;53.160;7.026;2023-05-17T17:53:46;12.30;99.30
52471;DHT22;38382;53.160;7.026;2023-05-17T17:56:14;11.90;98.00
52471;DHT22;38382;53.160;7.026;2023-05-17T17:58:47;10.70;98.00
52471;DHT22;38382;53.160;7.026;2023-05-17T18:02:13;11.70;98.10
52471;DHT22;38382;53.160;7.026;2023-05-17T18:07:47;11.60;99.90
52471;DHT22;38382;53.160;7.026;2023-05-17T18:13:51;11.50;99.90
52471;DHT22;38382;53.160;7.026;2023-05-17T18:17:13;11.40;99.90
52471;DHT22;38382;53.160;7.026;2023-05-17T18:39:03;11.10;99.90
52471;DHT22;38382;53.160;7.026;2023-05-17T18:41:57;11.10;99.90
52471;DHT22;38382;53.160;7.026;2023-05-17T18:44:32;10.50;99.90
52471;DHT22;38382;53.160;7.026;2023-05-17T18:47:20;10.90;99.90
52471;DHT22;38382;53.160;7.026;2023-05-17T18:49:57;10.70;99.90
52471;DHT22;38382;53.160;7.026;2023-05-17T18:52:24;10.80;99.90
52471;DHT22;38382;53.160;7.026;2023-05-17T18:55:59;10.80;99.90
52471;DHT22;38382;53.160;7.026;2023-05-17T19:03:22;10.70;99.90
52471;DHT22;38382;53.160;7.026;2023-05-17T19:05:48;10.80;99.90
52471;DHT22;38382;53.160;7.026;2023-05-17T19:11:58;9.40;99.90
52471;DHT22;38382;53.160;7.026;2023-05-17T19:19:21;10.40;99.90
52471;DHT22;38382;53.160;7.026;2023-05-17T19:26:07;10.10;99.90
52471;DHT22;38382;53.160;7.026;2023-05-17T19:33:00;10.30;99.90
52471;DHT22;38382;53.160;7.026;2023-05-17T19:36:37;10.20;99.90
52471;DHT22;38382;53.160;7.026;2023-05-17T19:40:04;10.20;99.90
52471;DHT22;38382;53.160;7.026;2023-05-17T19:43:46;10.10;99.90
52471;DHT22;38382;53.160;7.026;2023-05-17T19:47:22;9.50;99.90
52471;DHT22;38382;53.160;7.026;2023-05-17T19:50:48;9.50;99.90
52471;DHT22;38382;53.160;7.026;2023-05-17T19:57:03;10.00;99.90
52471;DHT22;38382;53.160;7.026;2023-05-17T19:59:51;9.80;99.90
52471;DHT22;38382;53.160;7.026;2023-05-17T20:02:48;9.80;99.90
52471;DHT22;38382;53.160;7.026;2023-05-17T20:09:16;10.00;99.90
52471;DHT22;38382;53.160;7.026;2023-05-17T20:15:25;9.90;99.90
52471;DHT22;38382;53.160;7.026;2023-05-17T20:17:54;9.70;99.90
52471;DHT22;38382;53.160;7.026;2023-05-17T20:35:36;9.80;99.90
52471;DHT22;38382;53.160;7.026;2023-05-17T20:38:40;9.70;99.90
52471;DHT22;38382;53.160;7.026;2023-05-17T20:41:54;9.60;99.90
52471;DHT22;38382;53.160;7.026;2023-05-17T20:56:21;9.50;99.90
52471;DHT22;38382;53.160;7.026;2023-05-17T21:06:50;10.00;99.90
52471;DHT22;38382;53.160;7.026;2023-05-17T21:10:50;9.70;99.90
52471;DHT22;38382;53.160;7.026;2023-05-17T21:13:16;9.30;99.90
52471;DHT22;38382;53.160;7.026;2023-05-17T21:16:29;9.30;99.90
52471;DHT22;38382;53.160;7.026;2023-05-17T21:26:10;9.80;99.90
52471;DHT22;38382;53.160;7.026;2023-05-17T21:28:56;9.20;99.90
52471;DHT22;38382;53.160;7.026;2023-05-17T21:35:42;8.60;99.90
52471;DHT22;38382;53.160;7.026;2023-05-17T21:38:49;9.00;99.90
52471;DHT22;38382;53.160;7.026;2023-05-17T21:45:19;9.00;99.90
52471;DHT22;38382;53.160;7.026;2023-05-17T21:48:24;9.10;99.90
52471;DHT22;38382;53.160;7.026;2023-05-17T21:59:42;8.20;99.90
52471;DHT22;38382;53.160;7.026;2023-05-17T22:02:11;8.50;99.90
52471;DHT22;38382;53.160;7.026;2023-05-17T22:04:36;9.00;99.90
52471;DHT22;38382;53.160;7.026;2023-05-17T22:07:02;9.00;99.90
52471;DHT22;38382;53.160;7.026;2023-05-17T22:09:28;8.90;99.90
52471;DHT22;38382;53.160;7.026;2023-05-17T22:31:02;8.80;99.90
52471;DHT22;38382;53.160;7.026;2023-05-17T22:34:54;8.80;99.90
52471;DHT22;38382;53.160;7.026;2023-05-17T22:52:37;8.70;99.90
52471;DHT22;38382;53.160;7.026;2023-05-17T22:55:06;8.50;99.90
52471;DHT22;38382;53.160;7.026;2023-05-17T22:57:32;8.40;99.90
52471;DHT22;38382;53.160;7.026;2023-05-17T22:59:58;8.40;99.90
52471;DHT22;38382;53.160;7.026;2023-05-17T23:02:24;8.30;99.90
52471;DHT22;38382;53.160;7.026;2023-05-17T23:04:50;8.30;99.90
52471;DHT22;38382;53.160;7.026;2023-05-17T23:07:15;8.20;99.90
52471;DHT22;38382;53.160;7.026;2023-05-17T23:09:41;8.20;99.90
52471;DHT22;38382;53.160;7.026;2023-05-17T23:12:07;8.20;99.90
52471;DHT22;38382;53.160;7.026;2023-05-17T23:14:38;8.20;99.90
52471;DHT22;38382;53.160;7.026;2023-05-17T23:17:04;7.60;99.90
52471;DHT22;38382;53.160;7.026;2023-05-17T23:19:30;8.30;99.90
52471;DHT22;38382;53.160;7.026;2023-05-17T23:21:57;8.20;99.90
52471;DHT22;38382;53.160;7.026;2023-05-17T23:24:27;8.20;99.90
52471;DHT22;38382;53.160;7.026;2023-05-17T23:26:53;8.30;99.90
52471;DHT22;38382;53.160;7.026;2023-05-17T23:29:22;8.30;99.90
52471;DHT22;38382;53.160;7.026;2023-05-17T23:43:37;7.70;99.90
